createdAt,value
2019-05-03T00:02:18.282Z,7.70
2019-05-03T00:04:47.086Z,8.37
2019-05-03T00:07:14.818Z,8.07
2019-05-03T00:09:42.685Z,7.47
2019-05-03T00:12:10.185Z,7.33
2019-05-03T00:14:41.695Z,9.73
2019-05-03T00:17:09.297Z,7.20
2019-05-03T00:19:36.840Z,8.17
2019-05-03T00:22:04.382Z,7.97
2019-05-03T00:24:32.205Z,7.53
2019-05-03T00:27:01.790Z,8.13
2019-05-03T00:29:29.214Z,6.80
2019-05-03T00:31:56.699Z,6.47
2019-05-03T00:34:29.050Z,7.77
2019-05-03T00:36:58.529Z,6.83
2019-05-03T00:39:33.983Z,7.80
2019-05-03T00:42:02.756Z,7.43
2019-05-03T00:44:31.729Z,7.17
2019-05-03T00:46:59.270Z,7.73
2019-05-03T00:49:26.705Z,8.27
2019-05-03T00:51:54.139Z,7.80
2019-05-03T00:54:22.292Z,6.60
2019-05-03T00:56:49.964Z,6.90
2019-05-03T00:59:17.395Z,8.00
2019-05-03T01:01:44.884Z,7.03
2019-05-03T01:04:12.420Z,8.53
2019-05-03T01:06:39.980Z,9.73
2019-05-03T01:09:14.947Z,7.97
2019-05-03T01:11:42.463Z,7.43
2019-05-03T01:14:11.912Z,6.93
2019-05-03T01:16:39.369Z,8.03
2019-05-03T01:19:06.804Z,9.87
2019-05-03T01:21:34.162Z,7.73
2019-05-03T01:24:01.778Z,6.93
2019-05-03T01:26:29.287Z,8.77
2019-05-03T01:28:56.718Z,8.43
2019-05-03T01:31:24.071Z,7.13
2019-05-03T01:33:51.750Z,6.80
2019-05-03T01:36:19.253Z,7.83
2019-05-03T01:38:46.680Z,7.67
2019-05-03T01:41:14.099Z,6.47
2019-05-03T01:43:41.900Z,6.40
2019-05-03T01:46:09.453Z,11.37
2019-05-03T01:49:02.594Z,9.63
2019-05-03T01:51:48.452Z,8.50
2019-05-03T01:54:15.907Z,6.13
2019-05-03T01:56:55.489Z,8.33
2019-05-03T01:59:12.677Z,7.63
2019-05-03T02:02:02.787Z,7.07
2019-05-03T02:04:38.503Z,7.10
2019-05-03T02:07:06.088Z,9.73
2019-05-03T02:09:33.542Z,7.57
2019-05-03T02:12:02.154Z,7.80
2019-05-03T02:14:31.587Z,8.43
2019-05-03T02:16:59.017Z,8.70
2019-05-03T02:19:26.475Z,11.37
2019-05-03T02:21:53.920Z,6.80
2019-05-03T02:24:22.103Z,7.40
2019-05-03T02:26:49.745Z,7.27
2019-05-03T02:29:17.164Z,7.63
2019-05-03T02:31:44.584Z,8.00
2019-05-03T02:34:12.591Z,6.23
2019-05-03T02:36:42.550Z,6.80
2019-05-03T02:39:13.532Z,7.53
2019-05-03T02:41:41.277Z,10.43
2019-05-03T02:44:08.734Z,6.53
2019-05-03T02:46:56.231Z,6.13
2019-05-03T02:49:27.853Z,6.93
2019-05-03T02:51:55.668Z,5.97
2019-05-03T02:54:26.483Z,6.03
2019-05-03T02:56:52.637Z,13.37
2019-05-03T02:59:20.087Z,6.60
2019-05-03T03:01:48.139Z,6.90
2019-05-03T03:04:16.239Z,7.00
2019-05-03T03:06:46.215Z,5.97
2019-05-03T03:09:16.490Z,8.23
2019-05-03T03:11:46.024Z,7.87
2019-05-03T03:14:16.788Z,6.37
2019-05-03T03:16:49.547Z,7.07
2019-05-03T03:19:19.210Z,7.23
2019-05-03T03:21:48.891Z,6.70
2019-05-03T03:24:19.633Z,7.10
2019-05-03T03:26:49.206Z,12.33
2019-05-03T03:29:19.043Z,7.07
2019-05-03T03:32:20.858Z,6.03
2019-05-03T03:35:20.117Z,7.47
2019-05-03T03:37:46.263Z,7.23
2019-05-03T03:40:16.100Z,7.50
2019-05-03T03:42:45.002Z,6.63
2019-05-03T03:45:12.760Z,6.87
2019-05-03T03:47:40.182Z,8.60
2019-05-03T03:50:08.108Z,8.97
2019-05-03T03:52:39.102Z,9.73
2019-05-03T03:55:06.715Z,8.33
2019-05-03T03:57:35.730Z,11.17
2019-05-03T04:00:05.903Z,8.93
2019-05-03T04:02:35.380Z,9.63
2019-05-03T04:05:05.553Z,8.33
2019-05-03T04:07:35.943Z,8.90
2019-05-03T04:10:02.431Z,8.80
2019-05-03T04:12:29.960Z,11.60
2019-05-03T04:15:05.649Z,8.20
2019-05-03T04:17:56.747Z,10.33
2019-05-03T04:20:26.794Z,9.90
2019-05-03T04:22:56.069Z,8.97
2019-05-03T04:25:26.238Z,6.53
2019-05-03T04:27:55.916Z,7.67
2019-05-03T04:30:25.427Z,10.47
2019-05-03T04:32:52.316Z,8.70
2019-05-03T04:35:19.736Z,8.27
2019-05-03T04:37:47.307Z,7.07
2019-05-03T04:40:15.704Z,8.57
2019-05-03T04:42:46.283Z,8.10
2019-05-03T04:45:16.246Z,9.93
2019-05-03T04:47:42.939Z,9.30
2019-05-03T04:50:10.549Z,11.20
2019-05-03T04:52:37.927Z,9.03
2019-05-03T04:55:06.710Z,7.60
2019-05-03T04:57:40.656Z,11.03
2019-05-03T05:00:08.583Z,7.50
2019-05-03T05:02:35.449Z,9.27
2019-05-03T05:05:05.839Z,7.83
2019-05-03T05:07:35.074Z,9.47
2019-05-03T05:10:05.184Z,7.93
2019-05-03T05:12:32.238Z,9.17
2019-05-03T05:14:59.841Z,12.63
2019-05-03T05:17:40.586Z,11.13
2019-05-03T05:20:25.627Z,8.27
2019-05-03T05:22:54.392Z,11.30
2019-05-03T05:25:25.098Z,7.53
2019-05-03T05:28:15.249Z,12.87
2019-05-03T05:30:44.453Z,15.83
2019-05-03T05:33:19.901Z,23.77
2019-05-03T05:35:47.791Z,19.03
2019-05-03T05:38:15.222Z,18.27
2019-05-03T05:40:42.574Z,19.00
2019-05-03T05:43:10.021Z,21.03
2019-05-03T05:45:37.452Z,18.30
2019-05-03T05:48:07.915Z,18.60
2019-05-03T05:50:37.599Z,20.23
2019-05-03T05:53:05.114Z,20.90
2019-05-03T05:55:57.420Z,17.83
2019-05-03T05:58:34.909Z,16.53
2019-05-03T06:01:07.387Z,15.93
2019-05-03T06:03:34.923Z,16.97
2019-05-03T06:06:05.381Z,16.17
2019-05-03T06:08:47.494Z,16.63
2019-05-03T06:11:37.438Z,14.93
2019-05-03T06:14:30.273Z,14.30
2019-05-03T06:17:14.624Z,15.77
2019-05-03T06:19:55.012Z,13.83
2019-05-03T06:22:36.125Z,18.07
2019-05-03T06:25:10.833Z,14.07
2019-05-03T06:27:38.932Z,14.67
2019-05-03T06:30:27.778Z,14.17
2019-05-03T06:32:55.316Z,13.23
2019-05-03T06:35:24.371Z,12.00
2019-05-03T06:37:51.844Z,14.17
2019-05-03T06:40:19.488Z,14.30
2019-05-03T06:42:54.452Z,14.20
2019-05-03T06:45:16.582Z,17.33
2019-05-03T06:47:45.977Z,17.13
2019-05-03T06:50:14.531Z,14.17
2019-05-03T06:52:42.186Z,14.43
2019-05-03T06:55:10.858Z,16.07
2019-05-03T06:57:45.642Z,14.80
2019-05-03T07:00:24.627Z,12.23
2019-05-03T07:02:59.934Z,14.27
2019-05-03T07:05:52.453Z,15.93
2019-05-03T07:08:40.137Z,16.43
2019-05-03T07:11:07.734Z,15.80
2019-05-03T07:13:35.244Z,15.00
2019-05-03T07:16:04.525Z,11.93
2019-05-03T07:18:32.088Z,13.77
2019-05-03T07:20:59.525Z,11.93
2019-05-03T07:23:27.014Z,12.27
2019-05-03T07:25:55.194Z,11.90
2019-05-03T07:28:24.730Z,14.13
2019-05-03T07:30:54.314Z,13.00
2019-05-03T07:33:28.296Z,10.33
2019-05-03T07:35:55.821Z,13.37
2019-05-03T07:38:24.786Z,12.03
2019-05-03T07:40:52.381Z,13.57
2019-05-03T07:43:19.828Z,15.00
2019-05-03T07:45:47.378Z,24.67
2019-05-03T07:48:15.141Z,12.20
2019-05-03T07:50:44.611Z,11.63
2019-05-03T07:53:12.105Z,14.67
2019-05-03T07:56:07.713Z,16.63
2019-05-03T07:58:35.442Z,15.57
2019-05-03T08:01:09.595Z,12.57
2019-05-03T08:03:35.257Z,12.20
2019-05-03T08:06:04.794Z,10.57
2019-05-03T08:08:32.368Z,11.60
2019-05-03T08:10:59.756Z,11.27
2019-05-03T08:13:27.312Z,14.93
2019-05-03T08:15:55.793Z,13.17
2019-05-03T08:18:25.691Z,12.57
2019-05-03T08:20:52.968Z,13.43
2019-05-03T08:23:27.336Z,11.77
2019-05-03T08:25:50.981Z,13.17
2019-05-03T08:28:18.676Z,12.33
2019-05-03T08:31:17.583Z,16.93
2019-05-03T08:34:01.650Z,17.30
2019-05-03T08:36:32.051Z,14.63
2019-05-03T08:38:59.500Z,13.90
2019-05-03T08:41:28.875Z,13.60
2019-05-03T08:43:56.362Z,12.97
2019-05-03T08:46:25.327Z,12.70
2019-05-03T08:48:54.789Z,14.80
2019-05-03T08:51:22.410Z,16.00
2019-05-03T08:53:49.874Z,13.87
2019-05-03T08:56:17.310Z,15.47
2019-05-03T08:58:45.201Z,21.97
2019-05-03T09:01:14.797Z,11.83
2019-05-03T09:03:42.184Z,15.07
2019-05-03T09:06:09.588Z,14.37
2019-05-03T09:08:37.915Z,13.87
2019-05-03T09:11:11.299Z,15.17
2019-05-03T09:13:57.418Z,12.97
2019-05-03T09:16:25.286Z,18.40
2019-05-03T09:18:54.761Z,13.73
2019-05-03T09:21:22.225Z,14.83
2019-05-03T09:23:49.652Z,11.63
2019-05-03T09:26:17.210Z,12.73
2019-05-03T09:28:45.407Z,18.70
2019-05-03T09:31:14.874Z,12.43
2019-05-03T09:33:44.956Z,12.70
2019-05-03T09:36:12.039Z,11.17
2019-05-03T09:38:40.548Z,11.90
2019-05-03T09:41:08.171Z,13.30
2019-05-03T09:43:35.791Z,13.40
2019-05-03T09:46:05.138Z,16.33
2019-05-03T09:48:34.662Z,14.80
2019-05-03T09:51:02.036Z,10.77
2019-05-03T09:53:35.112Z,12.17
2019-05-03T09:56:04.903Z,7.83
2019-05-03T09:58:32.095Z,10.23
2019-05-03T10:00:59.528Z,9.00
2019-05-03T10:03:27.183Z,7.10
2019-05-03T10:05:55.379Z,7.17
2019-05-03T10:08:25.257Z,5.33
2019-05-03T10:11:10.462Z,5.43
2019-05-03T10:13:41.508Z,6.03
2019-05-03T10:16:07.518Z,7.10
2019-05-03T10:18:35.519Z,4.73
2019-05-03T10:21:05.137Z,6.10
2019-05-03T10:23:50.207Z,7.33
2019-05-03T10:26:17.754Z,5.10
2019-05-03T10:28:45.139Z,6.07
2019-05-03T10:31:12.573Z,4.10
2019-05-03T10:33:47.122Z,5.73
2019-05-03T10:36:15.492Z,4.53
2019-05-03T10:38:45.669Z,8.37
2019-05-03T10:41:12.702Z,7.53
2019-05-03T10:43:40.178Z,6.77
2019-05-03T10:46:07.733Z,5.17
2019-05-03T10:48:35.684Z,8.10
2019-05-03T10:51:04.685Z,8.73
2019-05-03T10:53:36.812Z,6.53
2019-05-03T10:56:39.205Z,7.57
2019-05-03T10:59:07.998Z,6.93
2019-05-03T11:02:12.845Z,8.73
2019-05-03T11:04:43.496Z,4.90
2019-05-03T11:07:10.369Z,5.83
2019-05-03T11:09:48.889Z,6.13
2019-05-03T11:12:07.315Z,4.10
2019-05-03T11:14:35.127Z,5.43
2019-05-03T11:17:02.995Z,5.87
2019-05-03T11:19:30.598Z,4.80
2019-05-03T11:21:58.009Z,5.17
2019-05-03T11:24:27.588Z,5.63
2019-05-03T11:26:59.911Z,6.53
2019-05-03T11:29:26.374Z,6.30
2019-05-03T11:32:09.485Z,7.40
2019-05-03T11:34:44.790Z,4.77
2019-05-03T11:37:34.661Z,3.50
2019-05-03T11:40:02.461Z,4.57
2019-05-03T11:42:29.903Z,4.63
2019-05-03T11:44:57.441Z,4.43
2019-05-03T11:47:27.147Z,5.93
2019-05-03T11:49:54.696Z,5.07
2019-05-03T11:52:22.311Z,7.10
2019-05-03T11:54:49.769Z,6.33
2019-05-03T11:57:24.024Z,6.67
2019-05-03T11:59:54.714Z,5.47
2019-05-03T12:02:44.919Z,5.40
2019-05-03T12:05:19.578Z,4.67
2019-05-03T12:07:47.109Z,4.63
2019-05-03T12:10:31.139Z,5.20
2019-05-03T12:12:46.750Z,4.57
2019-05-03T12:15:15.170Z,5.97
2019-05-03T12:17:51.974Z,4.03
2019-05-03T12:20:17.360Z,4.63
2019-05-03T12:22:46.516Z,3.47
2019-05-03T12:25:15.672Z,4.33
2019-05-03T12:27:43.999Z,4.73
2019-05-03T12:30:12.008Z,3.97
2019-05-03T12:32:39.439Z,4.10
2019-05-03T12:35:06.939Z,5.47
2019-05-03T12:37:35.356Z,6.53
2019-05-03T12:40:05.399Z,4.50
2019-05-03T12:42:35.247Z,5.27
2019-05-03T12:45:02.018Z,3.70
2019-05-03T12:47:29.465Z,3.77
2019-05-03T12:49:56.884Z,3.20
2019-05-03T12:52:26.782Z,5.37
2019-05-03T12:54:55.209Z,4.70
2019-05-03T12:57:22.713Z,5.03
2019-05-03T13:00:09.654Z,4.87
2019-05-03T13:03:04.454Z,5.70
2019-05-03T13:05:32.302Z,3.93
2019-05-03T13:08:24.716Z,8.37
2019-05-03T13:10:52.221Z,5.07
2019-05-03T13:13:19.621Z,3.87
2019-05-03T13:15:47.060Z,3.60
2019-05-03T13:18:15.677Z,3.00
2019-05-03T13:20:45.373Z,8.80
2019-05-03T13:23:13.125Z,8.63
2019-05-03T13:25:40.644Z,5.47
2019-05-03T13:28:08.126Z,3.77
2019-05-03T13:30:35.926Z,6.27
2019-05-03T13:33:05.657Z,3.43
2019-05-03T13:35:35.008Z,7.03
2019-05-03T13:38:02.631Z,5.13
2019-05-03T13:40:30.087Z,3.10
2019-05-03T13:43:03.560Z,5.47
2019-05-03T13:45:26.805Z,3.63
2019-05-03T13:47:55.318Z,3.23
2019-05-03T13:50:24.585Z,4.60
2019-05-03T13:52:52.220Z,3.20
2019-05-03T13:55:19.768Z,4.17
2019-05-03T13:57:47.241Z,4.83
2019-05-03T14:00:15.365Z,2.43
2019-05-03T14:02:44.879Z,4.80
2019-05-03T14:05:12.284Z,4.60
2019-05-03T14:07:39.639Z,3.53
2019-05-03T14:10:07.311Z,4.67
2019-05-03T14:12:35.145Z,3.17
2019-05-03T14:15:02.989Z,5.07
2019-05-03T14:17:30.415Z,5.77
2019-05-03T14:20:17.341Z,6.77
2019-05-03T14:22:46.331Z,4.77
2019-05-03T14:25:15.173Z,2.90
2019-05-03T14:27:42.908Z,6.03
2019-05-03T14:30:11.023Z,6.90
2019-05-03T14:32:38.422Z,4.07
2019-05-03T14:35:06.031Z,5.17
2019-05-03T14:37:34.967Z,4.83
2019-05-03T14:40:05.081Z,2.77
2019-05-03T14:42:32.532Z,3.27
2019-05-03T14:44:59.989Z,3.50
2019-05-03T14:47:27.476Z,2.73
2019-05-03T14:49:54.931Z,4.50
2019-05-03T14:52:22.389Z,7.27
2019-05-03T14:54:52.581Z,5.03
2019-05-03T14:57:27.413Z,5.80
2019-05-03T15:00:16.923Z,4.17
2019-05-03T15:03:06.950Z,6.13
2019-05-03T15:05:34.927Z,5.37
2019-05-03T15:08:02.495Z,4.60
2019-05-03T15:10:29.917Z,9.40
2019-05-03T15:12:57.388Z,3.37
2019-05-03T15:15:25.156Z,7.67
2019-05-03T15:17:52.695Z,5.13
2019-05-03T15:20:20.387Z,5.77
2019-05-03T15:22:47.806Z,7.90
2019-05-03T15:25:15.685Z,4.20
2019-05-03T15:27:44.812Z,6.77
2019-05-03T15:30:15.360Z,7.77
2019-05-03T15:32:56.249Z,4.93
2019-05-03T15:35:12.293Z,3.93
2019-05-03T15:37:39.734Z,4.27
2019-05-03T15:40:08.758Z,3.03
2019-05-03T15:42:38.084Z,4.37
2019-05-03T15:45:25.253Z,8.17
2019-05-03T15:48:08.067Z,8.80
2019-05-03T15:50:35.667Z,5.27
2019-05-03T15:53:04.401Z,6.10
2019-05-03T15:55:32.092Z,3.73
2019-05-03T15:57:59.571Z,4.90
2019-05-03T16:00:26.998Z,3.70
2019-05-03T16:02:58.318Z,7.23
2019-05-03T16:05:25.097Z,5.97
2019-05-03T16:07:52.865Z,5.43
2019-05-03T16:10:20.297Z,4.73
2019-05-03T16:12:47.762Z,5.30
2019-05-03T16:15:15.213Z,5.20
2019-05-03T16:17:42.760Z,4.13
2019-05-03T16:20:10.441Z,2.93
2019-05-03T16:22:37.819Z,2.70
2019-05-03T16:25:05.953Z,4.13
2019-05-03T16:27:55.190Z,3.57
2019-05-03T16:30:40.924Z,7.57
2019-05-03T16:33:08.407Z,4.70
2019-05-03T16:35:37.934Z,8.93
2019-05-03T16:38:06.171Z,9.63
2019-05-03T16:40:34.550Z,8.83
2019-05-03T16:43:02.153Z,6.33
2019-05-03T16:45:29.560Z,7.13
2019-05-03T16:47:57.091Z,5.73
2019-05-03T16:50:25.097Z,5.83
2019-05-03T16:52:52.668Z,8.90
2019-05-03T16:55:20.640Z,5.47
2019-05-03T16:57:48.094Z,7.17
2019-05-03T17:00:17.948Z,9.07
2019-05-03T17:02:45.149Z,3.90
2019-05-03T17:05:25.119Z,6.60
2019-05-03T17:08:12.011Z,7.57
2019-05-03T17:10:42.347Z,7.70
2019-05-03T17:13:09.792Z,8.30
2019-05-03T17:15:37.212Z,7.47
2019-05-03T17:18:04.570Z,5.60
2019-05-03T17:20:32.037Z,6.83
2019-05-03T17:22:59.526Z,3.37
2019-05-03T17:25:27.025Z,4.97
2019-05-03T17:27:54.526Z,6.17
2019-05-03T17:30:32.862Z,6.53
2019-05-03T17:32:51.932Z,5.60
2019-05-03T17:35:19.656Z,6.57
2019-05-03T17:37:47.310Z,6.70
2019-05-03T17:40:34.918Z,9.43
2019-05-03T17:43:22.482Z,5.67
2019-05-03T17:45:52.438Z,7.27
2019-05-03T17:48:19.867Z,11.50
2019-05-03T17:50:47.361Z,11.70
2019-05-03T17:53:34.604Z,12.80
2019-05-03T17:56:07.124Z,8.30
2019-05-03T17:58:49.112Z,7.63
2019-05-03T18:01:51.460Z,14.57
2019-05-03T18:04:38.735Z,10.47
2019-05-03T18:07:30.363Z,5.93
2019-05-03T18:09:57.859Z,7.67
2019-05-03T18:12:25.351Z,9.23
2019-05-03T18:14:52.930Z,9.10
2019-05-03T18:17:20.311Z,6.17
2019-05-03T18:19:47.978Z,17.40
2019-05-03T18:22:15.478Z,36.07
2019-05-03T18:24:42.856Z,7.77
2019-05-03T18:27:10.305Z,10.87
2019-05-03T18:29:37.804Z,13.93
2019-05-03T18:32:05.612Z,10.43
2019-05-03T18:34:33.138Z,24.80
2019-05-03T18:37:00.580Z,21.20
2019-05-03T18:39:28.098Z,14.73
2019-05-03T18:41:55.593Z,13.07
2019-05-03T18:44:45.434Z,14.53
2019-05-03T18:47:19.734Z,8.90
2019-05-03T18:49:47.185Z,10.77
2019-05-03T18:52:15.001Z,12.70
2019-05-03T18:54:44.379Z,10.73
2019-05-03T18:57:11.840Z,11.23
2019-05-03T18:59:39.411Z,10.03
2019-05-03T19:02:06.822Z,12.00
2019-05-03T19:04:45.926Z,8.33
2019-05-03T19:07:35.684Z,5.67
2019-05-03T19:10:11.669Z,6.77
2019-05-03T19:12:58.688Z,7.00
2019-05-03T19:15:26.383Z,6.67
2019-05-03T19:18:06.625Z,6.93
2019-05-03T19:20:35.218Z,9.80
2019-05-03T19:23:04.863Z,9.10
2019-05-03T19:25:44.061Z,8.83
2019-05-03T19:28:01.689Z,13.30
2019-05-03T19:30:31.068Z,13.27
2019-05-03T19:32:58.585Z,15.10
2019-05-03T19:35:27.613Z,13.27
2019-05-03T19:37:55.563Z,17.27
2019-05-03T19:40:23.130Z,10.97
2019-05-03T19:42:50.579Z,9.83
2019-05-03T19:45:17.973Z,11.60
2019-05-03T19:47:45.528Z,7.93
2019-05-03T19:50:13.158Z,9.00
2019-05-03T19:53:15.196Z,9.43
2019-05-03T19:55:44.854Z,6.13
2019-05-03T19:58:11.993Z,5.13
2019-05-03T20:00:57.407Z,5.47
2019-05-03T20:03:37.591Z,5.23
2019-05-03T20:06:18.154Z,5.93
2019-05-03T20:08:50.360Z,7.00
2019-05-03T20:11:18.362Z,7.70
2019-05-03T20:13:46.258Z,6.80
2019-05-03T20:16:15.383Z,6.17
2019-05-03T20:18:45.445Z,4.57
2019-05-03T20:21:14.738Z,5.93
2019-05-03T20:23:41.963Z,3.50
2019-05-03T20:26:09.411Z,4.57
2019-05-03T20:28:36.861Z,4.63
2019-05-03T20:31:04.993Z,5.10
2019-05-03T20:33:32.568Z,8.03
2019-05-03T20:36:01.509Z,6.30
2019-05-03T20:38:29.438Z,4.80
2019-05-03T20:40:57.435Z,7.17
2019-05-03T20:43:47.280Z,4.80
2019-05-03T20:46:18.055Z,5.10
2019-05-03T20:48:47.858Z,5.50
2019-05-03T20:51:15.293Z,4.60
2019-05-03T20:53:44.772Z,3.50
2019-05-03T20:56:12.048Z,3.67
2019-05-03T20:58:39.524Z,3.27
2019-05-03T21:01:07.084Z,4.00
2019-05-03T21:03:34.432Z,6.40
2019-05-03T21:06:02.500Z,5.37
2019-05-03T21:08:30.736Z,4.17
2019-05-03T21:10:58.293Z,4.83
2019-05-03T21:13:38.633Z,7.10
2019-05-03T21:16:11.173Z,3.90
2019-05-03T21:19:04.987Z,5.40
2019-05-03T21:21:39.490Z,4.07
2019-05-03T21:24:12.278Z,5.20
2019-05-03T21:26:39.695Z,6.97
2019-05-03T21:29:07.110Z,3.53
2019-05-03T21:31:35.204Z,5.77
2019-05-03T21:34:03.018Z,6.27
2019-05-03T21:36:30.437Z,3.77
2019-05-03T21:38:57.889Z,5.03
2019-05-03T21:41:25.338Z,3.73
2019-05-03T21:43:54.539Z,5.37
2019-05-03T21:46:31.538Z,3.90
2019-05-03T21:49:14.894Z,5.97
2019-05-03T21:51:42.483Z,4.20
2019-05-03T21:54:10.531Z,6.70
2019-05-03T21:56:38.004Z,3.93
2019-05-03T21:59:05.715Z,5.10
2019-05-03T22:01:34.612Z,6.80
2019-05-03T22:04:03.370Z,4.50
2019-05-03T22:06:30.776Z,5.30
2019-05-03T22:08:58.538Z,4.50
2019-05-03T22:11:26.049Z,6.23
2019-05-03T22:13:57.176Z,7.90
2019-05-03T22:16:55.288Z,4.53
2019-05-03T22:19:22.648Z,6.50
2019-05-03T22:22:09.594Z,5.57
2019-05-03T22:24:47.020Z,7.47
2019-05-03T22:27:16.135Z,4.23
2019-05-03T22:29:44.758Z,4.90
2019-05-03T22:32:12.334Z,6.37
2019-05-03T22:34:39.856Z,6.67
2019-05-03T22:37:07.473Z,7.17
2019-05-03T22:39:34.911Z,6.17
2019-05-03T22:42:04.368Z,5.50
2019-05-03T22:44:31.748Z,9.67
2019-05-03T22:46:59.141Z,6.33
2019-05-03T22:49:26.624Z,5.83
2019-05-03T22:51:54.435Z,6.93
2019-05-03T22:54:22.170Z,8.03
2019-05-03T22:56:49.601Z,7.60
2019-05-03T22:59:17.080Z,5.67
2019-05-03T23:01:45.857Z,7.03
2019-05-03T23:04:14.722Z,7.10
2019-05-03T23:06:46.621Z,7.60
2019-05-03T23:09:11.711Z,7.80
2019-05-03T23:11:39.168Z,7.90
2019-05-03T23:14:06.736Z,6.27
2019-05-03T23:16:35.625Z,11.07
2019-05-03T23:19:05.591Z,8.00
2019-05-03T23:21:57.361Z,7.20
2019-05-03T23:24:24.855Z,7.30
2019-05-03T23:26:52.353Z,6.03
2019-05-03T23:29:19.818Z,6.17
2019-05-03T23:31:47.228Z,7.20
2019-05-03T23:34:14.645Z,6.33
2019-05-03T23:36:42.252Z,9.60
2019-05-03T23:39:09.736Z,11.40
2019-05-03T23:41:37.191Z,6.67
2019-05-03T23:44:04.845Z,7.33
2019-05-03T23:46:38.192Z,9.87
2019-05-03T23:49:05.613Z,5.73
2019-05-03T23:51:49.970Z,8.23
2019-05-03T23:54:17.767Z,5.23
2019-05-03T23:56:45.805Z,10.10
2019-05-03T23:59:14.839Z,8.57
